sensor_id;sensor_type;location;lat;lon;timestamp;temperature;humidity
13354;DHT22;6746;50.892;4.064;2023-06-22T00:02:14;19.50;99.90
13354;DHT22;6746;50.892;4.064;2023-06-22T00:04:52;19.50;99.90
13354;DHT22;6746;50.892;4.064;2023-06-22T00:07:30;19.40;99.90
13354;DHT22;6746;50.892;4.064;2023-06-22T00:10:18;19.30;99.90
13354;DHT22;6746;50.892;4.064;2023-06-22T00:12:57;19.20;99.90
13354;DHT22;6746;50.892;4.064;2023-06-22T00:15:35;19.30;99.90
13354;DHT22;6746;50.892;4.064;2023-06-22T00:18:15;19.20;99.90
13354;DHT22;6746;50.892;4.064;2023-06-22T00:20:54;19.20;99.90
13354;DHT22;6746;50.892;4.064;2023-06-22T00:23:37;19.20;99.90
13354;DHT22;6746;50.892;4.064;2023-06-22T00:26:15;19.20;99.90
13354;DHT22;6746;50.892;4.064;2023-06-22T00:28:56;19.20;99.90
13354;DHT22;6746;50.892;4.064;2023-06-22T00:31:34;19.20;99.90
13354;DHT22;6746;50.892;4.064;2023-06-22T00:34:18;19.20;99.90
13354;DHT22;6746;50.892;4.064;2023-06-22T00:36:56;19.20;99.90
13354;DHT22;6746;50.892;4.064;2023-06-22T00:39:36;19.10;99.90
13354;DHT22;6746;50.892;4.064;2023-06-22T00:42:15;19.00;99.90
13354;DHT22;6746;50.892;4.064;2023-06-22T00:44:56;19.00;99.90
13354;DHT22;6746;50.892;4.064;2023-06-22T00:47:34;18.90;99.90
13354;DHT22;6746;50.892;4.064;2023-06-22T00:50:22;18.90;99.90
13354;DHT22;6746;50.892;4.064;2023-06-22T00:53:04;18.80;99.90
13354;DHT22;6746;50.892;4.064;2023-06-22T00:55:40;18.70;99.90
13354;DHT22;6746;50.892;4.064;2023-06-22T00:58:16;18.60;99.90
13354;DHT22;6746;50.892;4.064;2023-06-22T01:00:54;18.60;99.90
13354;DHT22;6746;50.892;4.064;2023-06-22T01:03:40;18.70;99.90
13354;DHT22;6746;50.892;4.064;2023-06-22T01:06:25;18.60;99.90
13354;DHT22;6746;50.892;4.064;2023-06-22T01:09:06;18.70;99.90
13354;DHT22;6746;50.892;4.064;2023-06-22T01:11:45;18.70;99.90
13354;DHT22;6746;50.892;4.064;2023-06-22T01:14:25;18.70;99.90
13354;DHT22;6746;50.892;4.064;2023-06-22T01:17:02;18.70;99.90
13354;DHT22;6746;50.892;4.064;2023-06-22T01:19:46;18.60;99.90
13354;DHT22;6746;50.892;4.064;2023-06-22T01:22:28;18.60;99.90
13354;DHT22;6746;50.892;4.064;2023-06-22T01:25:09;18.70;99.90
13354;DHT22;6746;50.892;4.064;2023-06-22T01:27:59;18.70;99.90
13354;DHT22;6746;50.892;4.064;2023-06-22T01:30:41;18.60;99.90
13354;DHT22;6746;50.892;4.064;2023-06-22T01:33:19;18.50;99.90
13354;DHT22;6746;50.892;4.064;2023-06-22T01:35:58;18.60;99.90
13354;DHT22;6746;50.892;4.064;2023-06-22T01:38:36;18.50;99.90
13354;DHT22;6746;50.892;4.064;2023-06-22T01:41:17;18.40;99.90
13354;DHT22;6746;50.892;4.064;2023-06-22T01:43:55;18.40;99.90
13354;DHT22;6746;50.892;4.064;2023-06-22T01:46:43;18.40;99.90
13354;DHT22;6746;50.892;4.064;2023-06-22T01:49:21;18.30;99.90
13354;DHT22;6746;50.892;4.064;2023-06-22T01:51:59;18.30;99.90
13354;DHT22;6746;50.892;4.064;2023-06-22T01:54:46;18.30;99.90
13354;DHT22;6746;50.892;4.064;2023-06-22T01:57:34;18.20;99.90
13354;DHT22;6746;50.892;4.064;2023-06-22T02:00:22;18.20;99.90
13354;DHT22;6746;50.892;4.064;2023-06-22T02:03:16;18.10;99.90
13354;DHT22;6746;50.892;4.064;2023-06-22T02:06:37;18.10;99.90
13354;DHT22;6746;50.892;4.064;2023-06-22T02:08:41;18.10;99.90
13354;DHT22;6746;50.892;4.064;2023-06-22T02:11:22;18.10;99.90
13354;DHT22;6746;50.892;4.064;2023-06-22T02:14:00;18.00;99.90
13354;DHT22;6746;50.892;4.064;2023-06-22T02:16:38;18.00;99.90
13354;DHT22;6746;50.892;4.064;2023-06-22T02:19:17;17.90;99.90
13354;DHT22;6746;50.892;4.064;2023-06-22T02:22:05;17.90;99.90
13354;DHT22;6746;50.892;4.064;2023-06-22T02:24:43;17.90;99.90
13354;DHT22;6746;50.892;4.064;2023-06-22T02:27:21;18.00;99.90
13354;DHT22;6746;50.892;4.064;2023-06-22T02:29:59;18.00;99.90
13354;DHT22;6746;50.892;4.064;2023-06-22T02:32:38;17.90;99.90
13354;DHT22;6746;50.892;4.064;2023-06-22T02:35:21;17.90;99.90
13354;DHT22;6746;50.892;4.064;2023-06-22T02:38:00;17.90;99.90
13354;DHT22;6746;50.892;4.064;2023-06-22T02:40:38;18.00;99.90
13354;DHT22;6746;50.892;4.064;2023-06-22T02:43:16;17.90;99.90
13354;DHT22;6746;50.892;4.064;2023-06-22T02:46:02;17.80;99.90
13354;DHT22;6746;50.892;4.064;2023-06-22T02:48:41;17.80;99.90
13354;DHT22;6746;50.892;4.064;2023-06-22T02:51:24;17.80;99.90
13354;DHT22;6746;50.892;4.064;2023-06-22T02:54:02;17.80;99.90
13354;DHT22;6746;50.892;4.064;2023-06-22T02:56:40;17.70;99.90
13354;DHT22;6746;50.892;4.064;2023-06-22T02:59:18;17.70;99.90
13354;DHT22;6746;50.892;4.064;2023-06-22T03:01:59;17.70;99.90
13354;DHT22;6746;50.892;4.064;2023-06-22T03:04:37;17.70;99.90
13354;DHT22;6746;50.892;4.064;2023-06-22T03:07:16;17.70;99.90
13354;DHT22;6746;50.892;4.064;2023-06-22T03:09:54;17.70;99.90
13354;DHT22;6746;50.892;4.064;2023-06-22T03:12:32;17.60;99.90
13354;DHT22;6746;50.892;4.064;2023-06-22T03:15:11;17.60;99.90
13354;DHT22;6746;50.892;4.064;2023-06-22T03:17:58;17.60;99.90
13354;DHT22;6746;50.892;4.064;2023-06-22T03:20:36;17.60;99.90
13354;DHT22;6746;50.892;4.064;2023-06-22T03:23:15;17.60;99.90
13354;DHT22;6746;50.892;4.064;2023-06-22T03:25:55;17.60;99.90
13354;DHT22;6746;50.892;4.064;2023-06-22T03:28:34;17.60;99.90
13354;DHT22;6746;50.892;4.064;2023-06-22T03:31:12;17.70;99.90
13354;DHT22;6746;50.892;4.064;2023-06-22T03:33:50;17.60;99.90
13354;DHT22;6746;50.892;4.064;2023-06-22T03:36:36;17.60;99.90
13354;DHT22;6746;50.892;4.064;2023-06-22T03:39:14;17.50;99.90
13354;DHT22;6746;50.892;4.064;2023-06-22T03:41:52;17.50;99.90
13354;DHT22;6746;50.892;4.064;2023-06-22T03:44:30;17.50;99.90
13354;DHT22;6746;50.892;4.064;2023-06-22T03:47:02;17.50;99.90
13354;DHT22;6746;50.892;4.064;2023-06-22T03:49:30;17.50;99.90
13354;DHT22;6746;50.892;4.064;2023-06-22T03:52:09;17.50;99.90
13354;DHT22;6746;50.892;4.064;2023-06-22T03:54:47;17.50;99.90
13354;DHT22;6746;50.892;4.064;2023-06-22T03:57:19;17.50;99.90
13354;DHT22;6746;50.892;4.064;2023-06-22T03:59:47;17.60;99.90
13354;DHT22;6746;50.892;4.064;2023-06-22T04:02:19;17.60;99.90
13354;DHT22;6746;50.892;4.064;2023-06-22T04:04:48;17.60;99.90
13354;DHT22;6746;50.892;4.064;2023-06-22T04:07:20;17.60;99.90
13354;DHT22;6746;50.892;4.064;2023-06-22T04:09:49;17.60;99.90
13354;DHT22;6746;50.892;4.064;2023-06-22T04:12:21;17.60;99.90
13354;DHT22;6746;50.892;4.064;2023-06-22T04:14:50;17.70;99.90
13354;DHT22;6746;50.892;4.064;2023-06-22T04:17:21;17.70;99.90
13354;DHT22;6746;50.892;4.064;2023-06-22T04:19:51;17.80;99.90
13354;DHT22;6746;50.892;4.064;2023-06-22T04:22:39;17.90;99.90
13354;DHT22;6746;50.892;4.064;2023-06-22T04:25:12;17.90;99.90
13354;DHT22;6746;50.892;4.064;2023-06-22T04:27:41;18.00;99.90
13354;DHT22;6746;50.892;4.064;2023-06-22T04:30:13;18.10;99.90
13354;DHT22;6746;50.892;4.064;2023-06-22T04:32:42;18.20;99.90
13354;DHT22;6746;50.892;4.064;2023-06-22T04:35:20;18.30;99.90
13354;DHT22;6746;50.892;4.064;2023-06-22T04:37:59;18.40;99.90
13354;DHT22;6746;50.892;4.064;2023-06-22T04:40:38;18.50;99.90
13354;DHT22;6746;50.892;4.064;2023-06-22T04:43:18;18.50;99.90
13354;DHT22;6746;50.892;4.064;2023-06-22T04:45:54;18.60;99.90
13354;DHT22;6746;50.892;4.064;2023-06-22T04:48:23;18.70;99.90
13354;DHT22;6746;50.892;4.064;2023-06-22T04:51:01;18.80;99.90
13354;DHT22;6746;50.892;4.064;2023-06-22T04:53:39;18.80;99.90
13354;DHT22;6746;50.892;4.064;2023-06-22T04:56:17;18.90;99.90
13354;DHT22;6746;50.892;4.064;2023-06-22T04:58:49;19.00;99.90
13354;DHT22;6746;50.892;4.064;2023-06-22T05:01:18;19.10;99.90
13354;DHT22;6746;50.892;4.064;2023-06-22T05:03:57;19.20;99.90
13354;DHT22;6746;50.892;4.064;2023-06-22T05:06:35;19.20;99.90
13354;DHT22;6746;50.892;4.064;2023-06-22T05:09:13;19.30;99.90
13354;DHT22;6746;50.892;4.064;2023-06-22T05:11:51;19.30;99.90
13354;DHT22;6746;50.892;4.064;2023-06-22T05:14:29;19.30;99.90
13354;DHT22;6746;50.892;4.064;2023-06-22T05:17:07;19.30;99.90
13354;DHT22;6746;50.892;4.064;2023-06-22T05:19:46;19.20;99.90
13354;DHT22;6746;50.892;4.064;2023-06-22T05:22:25;19.30;99.90
13354;DHT22;6746;50.892;4.064;2023-06-22T05:24:55;19.30;99.90
13354;DHT22;6746;50.892;4.064;2023-06-22T05:27:33;19.30;99.90
13354;DHT22;6746;50.892;4.064;2023-06-22T05:30:11;19.10;99.90
13354;DHT22;6746;50.892;4.064;2023-06-22T05:32:42;19.10;99.90
13354;DHT22;6746;50.892;4.064;2023-06-22T05:35:11;19.10;99.90
13354;DHT22;6746;50.892;4.064;2023-06-22T05:37:49;19.00;99.90
13354;DHT22;6746;50.892;4.064;2023-06-22T05:40:21;19.00;99.90
13354;DHT22;6746;50.892;4.064;2023-06-22T05:42:49;19.00;99.90
13354;DHT22;6746;50.892;4.064;2023-06-22T05:45:33;19.00;99.90
13354;DHT22;6746;50.892;4.064;2023-06-22T05:48:11;19.00;99.90
13354;DHT22;6746;50.892;4.064;2023-06-22T05:50:50;19.00;99.90
13354;DHT22;6746;50.892;4.064;2023-06-22T05:53:28;19.10;99.90
13354;DHT22;6746;50.892;4.064;2023-06-22T05:55:56;19.20;99.90
13354;DHT22;6746;50.892;4.064;2023-06-22T05:58:27;19.20;99.90
13354;DHT22;6746;50.892;4.064;2023-06-22T06:00:59;19.30;99.90
13354;DHT22;6746;50.892;4.064;2023-06-22T06:03:28;19.30;99.90
13354;DHT22;6746;50.892;4.064;2023-06-22T06:05:57;19.40;99.90
13354;DHT22;6746;50.892;4.064;2023-06-22T06:08:30;19.50;99.90
13354;DHT22;6746;50.892;4.064;2023-06-22T06:10:59;19.40;99.90
13354;DHT22;6746;50.892;4.064;2023-06-22T06:13:30;19.40;99.90
13354;DHT22;6746;50.892;4.064;2023-06-22T06:16:00;19.60;99.90
13354;DHT22;6746;50.892;4.064;2023-06-22T06:18:39;19.60;99.90
13354;DHT22;6746;50.892;4.064;2023-06-22T06:21:17;19.70;99.90
13354;DHT22;6746;50.892;4.064;2023-06-22T06:23:56;19.80;99.90
13354;DHT22;6746;50.892;4.064;2023-06-22T06:26:40;19.80;99.90
13354;DHT22;6746;50.892;4.064;2023-06-22T06:29:19;19.80;99.90
13354;DHT22;6746;50.892;4.064;2023-06-22T06:31:57;19.90;99.90
13354;DHT22;6746;50.892;4.064;2023-06-22T06:34:35;19.90;99.90
13354;DHT22;6746;50.892;4.064;2023-06-22T06:37:04;20.10;99.90
13354;DHT22;6746;50.892;4.064;2023-06-22T06:39:33;20.20;99.90
13354;DHT22;6746;50.892;4.064;2023-06-22T06:42:02;20.20;99.90
13354;DHT22;6746;50.892;4.064;2023-06-22T06:44:31;20.30;99.90
13354;DHT22;6746;50.892;4.064;2023-06-22T06:47:07;20.30;99.90
13354;DHT22;6746;50.892;4.064;2023-06-22T06:49:36;20.30;99.90
13354;DHT22;6746;50.892;4.064;2023-06-22T06:52:14;20.30;99.90
13354;DHT22;6746;50.892;4.064;2023-06-22T06:54:52;20.20;99.90
13354;DHT22;6746;50.892;4.064;2023-06-22T06:57:24;20.30;99.90
13354;DHT22;6746;50.892;4.064;2023-06-22T06:59:52;20.20;99.90
13354;DHT22;6746;50.892;4.064;2023-06-22T07:02:31;20.20;99.90
13354;DHT22;6746;50.892;4.064;2023-06-22T07:04:59;20.10;99.90
13354;DHT22;6746;50.892;4.064;2023-06-22T07:07:28;20.00;99.90
13354;DHT22;6746;50.892;4.064;2023-06-22T07:10:00;20.10;99.90
13354;DHT22;6746;50.892;4.064;2023-06-22T07:12:29;20.10;99.90
13354;DHT22;6746;50.892;4.064;2023-06-22T07:15:08;20.10;99.90
13354;DHT22;6746;50.892;4.064;2023-06-22T07:17:46;20.20;99.90
13354;DHT22;6746;50.892;4.064;2023-06-22T07:20:19;20.20;99.90
13354;DHT22;6746;50.892;4.064;2023-06-22T07:22:48;20.30;99.90
13354;DHT22;6746;50.892;4.064;2023-06-22T07:25:20;20.40;99.90
13354;DHT22;6746;50.892;4.064;2023-06-22T07:28:03;20.40;99.90
13354;DHT22;6746;50.892;4.064;2023-06-22T07:30:32;20.40;99.90
13354;DHT22;6746;50.892;4.064;2023-06-22T07:33:01;20.40;99.90
13354;DHT22;6746;50.892;4.064;2023-06-22T07:35:42;20.50;99.90
13354;DHT22;6746;50.892;4.064;2023-06-22T07:38:11;20.60;99.90
13354;DHT22;6746;50.892;4.064;2023-06-22T07:40:39;20.70;99.90
13354;DHT22;6746;50.892;4.064;2023-06-22T07:43:18;20.70;99.90
13354;DHT22;6746;50.892;4.064;2023-06-22T07:46:06;20.80;99.90
13354;DHT22;6746;50.892;4.064;2023-06-22T07:48:44;20.90;99.90
13354;DHT22;6746;50.892;4.064;2023-06-22T07:51:23;21.00;99.90
13354;DHT22;6746;50.892;4.064;2023-06-22T07:53:51;21.10;99.90
13354;DHT22;6746;50.892;4.064;2023-06-22T07:56:20;21.20;99.90
13354;DHT22;6746;50.892;4.064;2023-06-22T07:58:58;21.30;99.90
13354;DHT22;6746;50.892;4.064;2023-06-22T08:01:37;21.50;99.90
13354;DHT22;6746;50.892;4.064;2023-06-22T08:04:15;21.60;99.90
13354;DHT22;6746;50.892;4.064;2023-06-22T08:06:43;21.70;99.90
13354;DHT22;6746;50.892;4.064;2023-06-22T08:09:12;21.70;99.90
13354;DHT22;6746;50.892;4.064;2023-06-22T08:11:41;21.70;99.90
13354;DHT22;6746;50.892;4.064;2023-06-22T08:14:10;21.80;99.90
13354;DHT22;6746;50.892;4.064;2023-06-22T08:16:40;21.70;99.90
13354;DHT22;6746;50.892;4.064;2023-06-22T08:19:08;21.70;99.90
13354;DHT22;6746;50.892;4.064;2023-06-22T08:21:44;21.80;99.90
13354;DHT22;6746;50.892;4.064;2023-06-22T08:24:13;21.80;99.90
13354;DHT22;6746;50.892;4.064;2023-06-22T08:26:51;21.60;99.90
13354;DHT22;6746;50.892;4.064;2023-06-22T08:29:28;21.50;99.90
13354;DHT22;6746;50.892;4.064;2023-06-22T08:31:57;21.40;99.90
13354;DHT22;6746;50.892;4.064;2023-06-22T08:34:26;21.30;99.90
13354;DHT22;6746;50.892;4.064;2023-06-22T08:36:55;21.20;99.90
13354;DHT22;6746;50.892;4.064;2023-06-22T08:39:34;21.30;99.90
13354;DHT22;6746;50.892;4.064;2023-06-22T08:42:12;21.30;99.90
13354;DHT22;6746;50.892;4.064;2023-06-22T08:44:50;21.30;99.90
13354;DHT22;6746;50.892;4.064;2023-06-22T08:47:28;21.20;99.90
13354;DHT22;6746;50.892;4.064;2023-06-22T08:50:12;21.20;99.90
13354;DHT22;6746;50.892;4.064;2023-06-22T08:52:50;21.20;99.90
13354;DHT22;6746;50.892;4.064;2023-06-22T08:55:34;21.10;99.90
13354;DHT22;6746;50.892;4.064;2023-06-22T08:58:02;21.10;99.90
13354;DHT22;6746;50.892;4.064;2023-06-22T09:00:41;21.10;99.90
13354;DHT22;6746;50.892;4.064;2023-06-22T09:03:17;21.10;99.90
13354;DHT22;6746;50.892;4.064;2023-06-22T09:05:46;21.10;99.90
13354;DHT22;6746;50.892;4.064;2023-06-22T09:08:25;21.20;99.90
13354;DHT22;6746;50.892;4.064;2023-06-22T09:11:03;21.20;99.90
13354;DHT22;6746;50.892;4.064;2023-06-22T09:13:39;21.20;99.90
13354;DHT22;6746;50.892;4.064;2023-06-22T09:16:08;21.20;99.90
13354;DHT22;6746;50.892;4.064;2023-06-22T09:18:40;21.20;99.90
13354;DHT22;6746;50.892;4.064;2023-06-22T09:21:08;21.20;99.90
13354;DHT22;6746;50.892;4.064;2023-06-22T09:23:42;21.30;99.90
13354;DHT22;6746;50.892;4.064;2023-06-22T09:26:12;21.20;99.90
13354;DHT22;6746;50.892;4.064;2023-06-22T09:28:48;21.10;99.90
13354;DHT22;6746;50.892;4.064;2023-06-22T09:31:17;21.00;99.90
13354;DHT22;6746;50.892;4.064;2023-06-22T09:33:55;20.70;99.90
13354;DHT22;6746;50.892;4.064;2023-06-22T09:36:34;20.50;99.90
13354;DHT22;6746;50.892;4.064;2023-06-22T09:39:02;20.40;99.90
13354;DHT22;6746;50.892;4.064;2023-06-22T09:41:31;20.20;99.90
13354;DHT22;6746;50.892;4.064;2023-06-22T09:44:09;20.20;99.90
13354;DHT22;6746;50.892;4.064;2023-06-22T09:46:50;20.10;99.90
13354;DHT22;6746;50.892;4.064;2023-06-22T09:49:18;20.10;99.90
13354;DHT22;6746;50.892;4.064;2023-06-22T09:51:56;20.10;99.90
13354;DHT22;6746;50.892;4.064;2023-06-22T09:54:35;20.10;99.90
13354;DHT22;6746;50.892;4.064;2023-06-22T09:57:13;20.10;99.90
13354;DHT22;6746;50.892;4.064;2023-06-22T09:59:51;20.20;99.90
13354;DHT22;6746;50.892;4.064;2023-06-22T10:02:20;20.30;99.90
13354;DHT22;6746;50.892;4.064;2023-06-22T10:04:48;20.30;99.90
13354;DHT22;6746;50.892;4.064;2023-06-22T10:07:17;20.30;99.90
13354;DHT22;6746;50.892;4.064;2023-06-22T10:09:46;20.30;99.90
13354;DHT22;6746;50.892;4.064;2023-06-22T10:12:19;20.20;99.90
13354;DHT22;6746;50.892;4.064;2023-06-22T10:14:47;20.00;99.90
13354;DHT22;6746;50.892;4.064;2023-06-22T10:17:19;19.80;99.90
13354;DHT22;6746;50.892;4.064;2023-06-22T10:19:48;19.60;99.90
13354;DHT22;6746;50.892;4.064;2023-06-22T10:22:27;19.40;99.90
13354;DHT22;6746;50.892;4.064;2023-06-22T10:25:05;19.20;99.90
13354;DHT22;6746;50.892;4.064;2023-06-22T10:27:43;19.10;99.90
13354;DHT22;6746;50.892;4.064;2023-06-22T10:30:27;19.00;99.90
13354;DHT22;6746;50.892;4.064;2023-06-22T10:33:05;18.90;99.90
13354;DHT22;6746;50.892;4.064;2023-06-22T10:35:44;18.80;99.90
13354;DHT22;6746;50.892;4.064;2023-06-22T10:38:22;18.60;99.90
13354;DHT22;6746;50.892;4.064;2023-06-22T10:40:53;18.40;99.90
13354;DHT22;6746;50.892;4.064;2023-06-22T10:43:22;18.10;99.90
13354;DHT22;6746;50.892;4.064;2023-06-22T10:45:56;18.00;99.90
13354;DHT22;6746;50.892;4.064;2023-06-22T10:48:25;17.80;99.90
13354;DHT22;6746;50.892;4.064;2023-06-22T10:51:03;17.80;99.90
13354;DHT22;6746;50.892;4.064;2023-06-22T10:53:42;17.70;99.90
13354;DHT22;6746;50.892;4.064;2023-06-22T10:56:20;17.80;99.90
13354;DHT22;6746;50.892;4.064;2023-06-22T10:58:58;17.80;99.90
13354;DHT22;6746;50.892;4.064;2023-06-22T11:01:46;17.70;99.90
13354;DHT22;6746;50.892;4.064;2023-06-22T11:04:35;17.70;99.90
13354;DHT22;6746;50.892;4.064;2023-06-22T11:07:11;17.70;99.90
13354;DHT22;6746;50.892;4.064;2023-06-22T11:09:40;17.60;99.90
13354;DHT22;6746;50.892;4.064;2023-06-22T11:12:18;17.70;99.90
13354;DHT22;6746;50.892;4.064;2023-06-22T11:14:52;17.80;99.90
13354;DHT22;6746;50.892;4.064;2023-06-22T11:17:20;17.80;99.90
13354;DHT22;6746;50.892;4.064;2023-06-22T11:19:59;17.90;99.90
13354;DHT22;6746;50.892;4.064;2023-06-22T11:22:47;18.00;99.90
13354;DHT22;6746;50.892;4.064;2023-06-22T11:25:31;18.10;99.90
13354;DHT22;6746;50.892;4.064;2023-06-22T11:28:05;18.10;99.90
13354;DHT22;6746;50.892;4.064;2023-06-22T11:30:34;18.10;99.90
13354;DHT22;6746;50.892;4.064;2023-06-22T11:33:12;18.00;99.90
13354;DHT22;6746;50.892;4.064;2023-06-22T11:35:44;18.00;99.90
13354;DHT22;6746;50.892;4.064;2023-06-22T11:38:12;18.00;99.90
13354;DHT22;6746;50.892;4.064;2023-06-22T11:40:51;18.10;99.90
13354;DHT22;6746;50.892;4.064;2023-06-22T11:43:29;18.20;99.90
13354;DHT22;6746;50.892;4.064;2023-06-22T11:46:01;18.20;99.90
13354;DHT22;6746;50.892;4.064;2023-06-22T11:48:30;18.20;99.90
13354;DHT22;6746;50.892;4.064;2023-06-22T11:51:08;18.20;99.90
13354;DHT22;6746;50.892;4.064;2023-06-22T11:53:47;18.30;99.90
13354;DHT22;6746;50.892;4.064;2023-06-22T11:56:27;18.30;99.90
13354;DHT22;6746;50.892;4.064;2023-06-22T11:58:56;18.20;99.90
13354;DHT22;6746;50.892;4.064;2023-06-22T12:01:25;18.20;99.90
13354;DHT22;6746;50.892;4.064;2023-06-22T12:03:56;18.10;99.90
13354;DHT22;6746;50.892;4.064;2023-06-22T12:06:26;18.10;99.90
13354;DHT22;6746;50.892;4.064;2023-06-22T12:09:04;18.00;99.90
13354;DHT22;6746;50.892;4.064;2023-06-22T12:11:43;18.00;99.90
13354;DHT22;6746;50.892;4.064;2023-06-22T12:14:14;18.00;99.90
13354;DHT22;6746;50.892;4.064;2023-06-22T12:16:48;18.00;99.90
13354;DHT22;6746;50.892;4.064;2023-06-22T12:19:20;17.90;99.90
13354;DHT22;6746;50.892;4.064;2023-06-22T12:21:49;17.90;99.90
13354;DHT22;6746;50.892;4.064;2023-06-22T12:24:28;17.90;99.90
13354;DHT22;6746;50.892;4.064;2023-06-22T12:27:06;17.90;99.90
13354;DHT22;6746;50.892;4.064;2023-06-22T12:29:45;17.90;99.90
13354;DHT22;6746;50.892;4.064;2023-06-22T12:32:17;17.90;99.90
13354;DHT22;6746;50.892;4.064;2023-06-22T12:34:46;17.90;99.90
13354;DHT22;6746;50.892;4.064;2023-06-22T12:37:15;17.90;99.90
13354;DHT22;6746;50.892;4.064;2023-06-22T12:39:46;17.80;99.90
13354;DHT22;6746;50.892;4.064;2023-06-22T12:42:18;17.80;99.90
13354;DHT22;6746;50.892;4.064;2023-06-22T12:44:47;17.80;99.90
13354;DHT22;6746;50.892;4.064;2023-06-22T12:47:16;17.80;99.90
13354;DHT22;6746;50.892;4.064;2023-06-22T12:49:55;17.80;99.90
13354;DHT22;6746;50.892;4.064;2023-06-22T12:52:31;17.80;99.90
13354;DHT22;6746;50.892;4.064;2023-06-22T12:54:59;17.80;99.90
13354;DHT22;6746;50.892;4.064;2023-06-22T12:57:28;17.90;99.90
13354;DHT22;6746;50.892;4.064;2023-06-22T12:59:57;18.00;99.90
13354;DHT22;6746;50.892;4.064;2023-06-22T13:02:26;17.90;99.90
13354;DHT22;6746;50.892;4.064;2023-06-22T13:04:55;17.90;99.90
13354;DHT22;6746;50.892;4.064;2023-06-22T13:07:33;17.90;99.90
13354;DHT22;6746;50.892;4.064;2023-06-22T13:10:05;17.80;99.90
13354;DHT22;6746;50.892;4.064;2023-06-22T13:12:34;17.80;99.90
13354;DHT22;6746;50.892;4.064;2023-06-22T13:15:12;17.80;99.90
13354;DHT22;6746;50.892;4.064;2023-06-22T13:17:44;17.80;99.90
13354;DHT22;6746;50.892;4.064;2023-06-22T13:20:13;17.70;99.90
13354;DHT22;6746;50.892;4.064;2023-06-22T13:22:51;17.70;99.90
13354;DHT22;6746;50.892;4.064;2023-06-22T13:25:19;17.70;99.90
13354;DHT22;6746;50.892;4.064;2023-06-22T13:27:53;17.70;99.90
13354;DHT22;6746;50.892;4.064;2023-06-22T13:30:22;17.70;99.90
13354;DHT22;6746;50.892;4.064;2023-06-22T13:33:04;17.70;99.90
13354;DHT22;6746;50.892;4.064;2023-06-22T13:35:42;17.70;99.90
13354;DHT22;6746;50.892;4.064;2023-06-22T13:38:30;17.60;99.90
13354;DHT22;6746;50.892;4.064;2023-06-22T13:41:08;17.70;99.90
13354;DHT22;6746;50.892;4.064;2023-06-22T13:43:39;17.70;99.90
13354;DHT22;6746;50.892;4.064;2023-06-22T13:46:08;17.70;99.90
13354;DHT22;6746;50.892;4.064;2023-06-22T13:48:47;17.70;99.90
13354;DHT22;6746;50.892;4.064;2023-06-22T13:51:26;17.70;99.90
13354;DHT22;6746;50.892;4.064;2023-06-22T13:53:54;17.70;99.90
13354;DHT22;6746;50.892;4.064;2023-06-22T13:56:33;17.80;99.90
13354;DHT22;6746;50.892;4.064;2023-06-22T13:59:04;17.80;99.90
13354;DHT22;6746;50.892;4.064;2023-06-22T14:01:36;17.80;99.90
13354;DHT22;6746;50.892;4.064;2023-06-22T14:04:14;17.90;99.90
13354;DHT22;6746;50.892;4.064;2023-06-22T14:06:52;17.90;99.90
13354;DHT22;6746;50.892;4.064;2023-06-22T14:09:30;17.80;99.90
13354;DHT22;6746;50.892;4.064;2023-06-22T14:12:09;17.80;99.90
13354;DHT22;6746;50.892;4.064;2023-06-22T14:14:56;17.80;99.90
13354;DHT22;6746;50.892;4.064;2023-06-22T14:17:40;17.90;99.90
13354;DHT22;6746;50.892;4.064;2023-06-22T14:20:09;17.90;99.90
13354;DHT22;6746;50.892;4.064;2023-06-22T14:22:38;17.90;99.90
13354;DHT22;6746;50.892;4.064;2023-06-22T14:25:17;17.90;99.90
13354;DHT22;6746;50.892;4.064;2023-06-22T14:27:55;18.00;99.90
13354;DHT22;6746;50.892;4.064;2023-06-22T14:30:33;18.00;99.90
13354;DHT22;6746;50.892;4.064;2023-06-22T14:33:16;18.10;99.90
13354;DHT22;6746;50.892;4.064;2023-06-22T14:35:45;18.10;99.90
13354;DHT22;6746;50.892;4.064;2023-06-22T14:38:24;18.10;99.90
13354;DHT22;6746;50.892;4.064;2023-06-22T14:41:02;18.10;99.90
13354;DHT22;6746;50.892;4.064;2023-06-22T14:43:43;18.00;99.90
13354;DHT22;6746;50.892;4.064;2023-06-22T14:46:21;18.00;99.90
13354;DHT22;6746;50.892;4.064;2023-06-22T14:48:50;18.00;99.90
13354;DHT22;6746;50.892;4.064;2023-06-22T14:51:23;18.00;99.90
13354;DHT22;6746;50.892;4.064;2023-06-22T14:53:52;18.00;99.90
13354;DHT22;6746;50.892;4.064;2023-06-22T14:56:24;18.00;99.90
13354;DHT22;6746;50.892;4.064;2023-06-22T14:58:53;18.00;99.90
13354;DHT22;6746;50.892;4.064;2023-06-22T15:01:25;18.00;99.90
13354;DHT22;6746;50.892;4.064;2023-06-22T15:03:54;18.10;99.90
13354;DHT22;6746;50.892;4.064;2023-06-22T15:06:32;18.10;99.90
13354;DHT22;6746;50.892;4.064;2023-06-22T15:09:06;18.10;99.90
13354;DHT22;6746;50.892;4.064;2023-06-22T15:11:34;18.10;99.90
13354;DHT22;6746;50.892;4.064;2023-06-22T15:14:09;18.20;99.90
13354;DHT22;6746;50.892;4.064;2023-06-22T15:16:38;18.20;99.90
13354;DHT22;6746;50.892;4.064;2023-06-22T15:19:06;18.20;99.90
13354;DHT22;6746;50.892;4.064;2023-06-22T15:21:35;18.20;99.90
13354;DHT22;6746;50.892;4.064;2023-06-22T15:24:04;18.30;99.90
13354;DHT22;6746;50.892;4.064;2023-06-22T15:26:33;18.30;99.90
13354;DHT22;6746;50.892;4.064;2023-06-22T15:29:02;18.50;99.90
13354;DHT22;6746;50.892;4.064;2023-06-22T15:31:34;18.40;99.90
13354;DHT22;6746;50.892;4.064;2023-06-22T15:34:15;18.40;99.90
13354;DHT22;6746;50.892;4.064;2023-06-22T15:36:53;18.50;99.90
13354;DHT22;6746;50.892;4.064;2023-06-22T15:39:21;18.60;99.90
13354;DHT22;6746;50.892;4.064;2023-06-22T15:41:50;18.50;99.90
13354;DHT22;6746;50.892;4.064;2023-06-22T15:44:20;18.60;99.90
13354;DHT22;6746;50.892;4.064;2023-06-22T15:46:48;18.60;99.90
13354;DHT22;6746;50.892;4.064;2023-06-22T15:49:35;18.60;99.90
13354;DHT22;6746;50.892;4.064;2023-06-22T15:52:04;18.70;99.90
13354;DHT22;6746;50.892;4.064;2023-06-22T15:54:35;18.70;99.90
13354;DHT22;6746;50.892;4.064;2023-06-22T15:57:04;18.70;99.90
13354;DHT22;6746;50.892;4.064;2023-06-22T15:59:33;18.80;99.90
13354;DHT22;6746;50.892;4.064;2023-06-22T16:02:02;18.90;99.90
13354;DHT22;6746;50.892;4.064;2023-06-22T16:04:31;19.00;99.90
13354;DHT22;6746;50.892;4.064;2023-06-22T16:07:00;19.00;99.90
13354;DHT22;6746;50.892;4.064;2023-06-22T16:09:39;19.10;99.90
13354;DHT22;6746;50.892;4.064;2023-06-22T16:12:20;19.20;99.90
13354;DHT22;6746;50.892;4.064;2023-06-22T16:14:58;19.20;99.90
13354;DHT22;6746;50.892;4.064;2023-06-22T16:17:36;19.20;99.90
13354;DHT22;6746;50.892;4.064;2023-06-22T16:20:17;19.30;99.90
13354;DHT22;6746;50.892;4.064;2023-06-22T16:22:46;19.40;99.90
13354;DHT22;6746;50.892;4.064;2023-06-22T16:25:24;19.60;99.90
13354;DHT22;6746;50.892;4.064;2023-06-22T16:27:53;19.80;99.90
13354;DHT22;6746;50.892;4.064;2023-06-22T16:30:21;19.80;99.90
13354;DHT22;6746;50.892;4.064;2023-06-22T16:32:54;19.80;99.90
13354;DHT22;6746;50.892;4.064;2023-06-22T16:35:22;19.90;99.90
13354;DHT22;6746;50.892;4.064;2023-06-22T16:37:54;19.80;99.90